createdAt,value
2022-12-29T00:01:16.617Z,6.6
2022-12-29T00:04:16.748Z,8.6375
2022-12-29T00:07:16.659Z,9.875
2022-12-29T00:11:18.865Z,5.0875
2022-12-29T00:51:16.718Z,3.9375
2022-12-29T00:54:18.395Z,6.625
2022-12-29T00:57:17.081Z,3.9624999999999995
2022-12-29T01:01:16.814Z,5.6
2022-12-29T01:04:17.236Z,5.225
2022-12-29T01:07:16.910Z,4.862500000000001
2022-12-29T01:11:16.109Z,9.375
2022-12-29T01:14:16.986Z,3.275
2022-12-29T01:17:16.321Z,4
2022-12-29T01:21:15.841Z,3.7624999999999997
2022-12-29T01:24:18.203Z,7.612500000000001
2022-12-29T01:27:16.165Z,3.7249999999999996
2022-12-29T01:31:16.652Z,5.6625
2022-12-29T01:34:17.296Z,5.275
2022-12-29T01:37:16.851Z,5.6
2022-12-29T01:41:17.430Z,5.225
2022-12-29T01:44:51.684Z,8.775
2022-12-29T01:47:23.086Z,5.75
2022-12-29T01:51:17.054Z,6.775
2022-12-29T01:54:23.152Z,7.7
2022-12-29T01:57:20.280Z,6.5375
2022-12-29T02:01:19.825Z,6.225
2022-12-29T02:04:16.511Z,4.9875
2022-12-29T02:07:19.702Z,4.225
2022-12-29T02:11:16.647Z,8.7625
2022-12-29T02:14:16.575Z,8.3
2022-12-29T02:17:28.007Z,5.4375
2022-12-29T02:21:41.876Z,5.7625
2022-12-29T02:24:45.553Z,9.0125
2022-12-29T02:27:52.326Z,8.15
2022-12-29T02:31:24.682Z,7.7625
2022-12-29T02:34:26.802Z,3.9125000000000005
2022-12-29T02:37:24.141Z,8.95
2022-12-29T02:41:23.282Z,7.237500000000001
2022-12-29T02:44:25.231Z,5.2875000000000005
2022-12-29T02:47:24.252Z,9.225
2022-12-29T02:51:21.189Z,6.625
2022-12-29T02:54:49.898Z,4.6625000000000005
2022-12-29T02:57:30.867Z,7.4125
2022-12-29T03:01:28.364Z,11.025
2022-12-29T03:04:30.307Z,5.4125
2022-12-29T03:07:24.056Z,4.35
2022-12-29T03:12:27.773Z,8.225
2022-12-29T03:21:25.086Z,3.7875
2022-12-29T03:24:17.853Z,5.7625
2022-12-29T03:27:19.868Z,3.9375
2022-12-29T03:31:18.164Z,5.9375
2022-12-29T03:34:19.955Z,4.75
2022-12-29T03:37:20.601Z,6.2375
2022-12-29T03:41:20.726Z,8.975000000000001
2022-12-29T03:44:16.569Z,5.1625
2022-12-29T03:47:16.623Z,6.424999999999999
2022-12-29T03:51:15.765Z,9.825
2022-12-29T03:54:16.275Z,6.012499999999999
2022-12-29T03:57:16.215Z,6.9875
2022-12-29T04:01:16.446Z,7.2749999999999995
2022-12-29T04:04:16.796Z,8.3125
2022-12-29T04:07:16.706Z,7.2875
2022-12-29T04:11:15.887Z,12.5625
2022-12-29T04:14:16.366Z,10.8125
2022-12-29T04:17:16.236Z,4.550000000000001
2022-12-29T04:21:16.657Z,6.5375
2022-12-29T04:24:17.681Z,7.925
2022-12-29T04:27:17.160Z,4.175
2022-12-29T04:31:16.132Z,7.749999999999999
2022-12-29T04:34:16.714Z,7.225
2022-12-29T04:37:16.456Z,4.75
2022-12-29T04:41:16.661Z,8.350000000000001
2022-12-29T04:44:17.010Z,6.275
2022-12-29T04:47:16.871Z,5.625
2022-12-29T04:51:15.754Z,7.112499999999999
2022-12-29T04:54:16.369Z,4.862500000000001
2022-12-29T04:57:16.335Z,4.0625
2022-12-29T05:01:16.749Z,6.1375
2022-12-29T05:04:17.191Z,3.9124999999999996
2022-12-29T05:11:16.798Z,6.5625
2022-12-29T05:14:16.470Z,6.7625
2022-12-29T05:17:16.659Z,5.6375
2022-12-29T05:21:16.507Z,4.8
2022-12-29T05:24:17.003Z,7.074999999999999
2022-12-29T05:27:17.077Z,5.4125
2022-12-29T05:31:16.440Z,6.8125
2022-12-29T05:34:16.886Z,4.637499999999999
2022-12-29T05:37:16.892Z,5.0375
2022-12-29T05:41:16.250Z,7.887500000000001
2022-12-29T05:51:16.923Z,7.7125
2022-12-29T05:54:17.508Z,7.0625
2022-12-29T05:57:17.273Z,6.1375
2022-12-29T06:01:16.456Z,6.025
2022-12-29T06:04:16.953Z,5.525
2022-12-29T06:07:17.019Z,4.362500000000001
2022-12-29T06:11:16.728Z,7.887499999999999
2022-12-29T06:14:17.027Z,4.25
2022-12-29T06:17:17.285Z,3.75
2022-12-29T06:21:16.415Z,5.7875
2022-12-29T06:24:16.722Z,8.6875
2022-12-29T06:27:17.061Z,4.3375
2022-12-29T06:31:16.345Z,6
2022-12-29T06:34:16.623Z,5.3125
2022-12-29T06:37:16.648Z,6
2022-12-29T06:41:15.851Z,5.475
2022-12-29T06:44:16.236Z,5.3999999999999995
2022-12-29T06:47:16.466Z,6.0625
2022-12-29T06:51:16.340Z,8.274999999999999
2022-12-29T06:54:16.839Z,6.387499999999999
2022-12-29T06:57:16.757Z,6.95
2022-12-29T07:01:16.933Z,7.725
2022-12-29T07:04:17.647Z,6.675
2022-12-29T07:07:17.297Z,4
2022-12-29T07:11:16.657Z,6.0125
2022-12-29T07:14:16.973Z,3.4875
2022-12-29T07:17:16.928Z,6.575
2022-12-29T07:21:16.299Z,5.0125
2022-12-29T07:24:16.672Z,4.9375
2022-12-29T07:27:16.602Z,4.125
2022-12-29T07:31:19.309Z,8.4375
2022-12-29T07:34:16.898Z,6.3374999999999995
2022-12-29T07:37:17.338Z,5.6875
2022-12-29T07:41:16.019Z,8.7625
2022-12-29T07:44:16.206Z,9.525
2022-12-29T07:47:16.311Z,8.4125
2022-12-29T07:51:16.201Z,9.375
2022-12-29T07:54:19.554Z,8.8375
2022-12-29T07:57:16.675Z,8.1375
2022-12-29T08:01:16.665Z,7.4375
2022-12-29T08:04:17.161Z,13.8625
2022-12-29T08:07:17.067Z,10.825
2022-12-29T08:11:16.569Z,15.275000000000002
2022-12-29T08:14:17.033Z,11.9375
2022-12-29T08:17:16.967Z,9.8625
2022-12-29T08:21:15.942Z,8.1375
2022-12-29T08:24:16.624Z,11.087499999999999
2022-12-29T08:27:20.616Z,7.9625
2022-12-29T08:31:16.290Z,6.550000000000001
2022-12-29T08:34:16.718Z,5.7875
2022-12-29T08:37:16.756Z,9.3
2022-12-29T08:41:16.024Z,6.35
2022-12-29T08:44:16.525Z,7.3375
2022-12-29T08:47:16.226Z,5.9125
2022-12-29T08:51:21.339Z,5.6875
2022-12-29T08:54:16.961Z,6.45
2022-12-29T08:57:16.996Z,5.175
2022-12-29T09:01:16.417Z,7.9625
2022-12-29T09:04:17.581Z,5.3125
2022-12-29T09:07:16.370Z,6.125
2022-12-29T09:11:18.921Z,5.325
2022-12-29T09:14:16.913Z,5.425
2022-12-29T09:17:49.280Z,7.824999999999999
2022-12-29T09:21:17.547Z,4.525
2022-12-29T09:24:16.582Z,3.7625
2022-12-29T09:27:16.732Z,11.1
2022-12-29T09:31:16.835Z,6.2875
2022-12-29T09:34:17.301Z,4.3125
2022-12-29T09:37:17.495Z,6.0875
2022-12-29T09:41:20.864Z,4.95
2022-12-29T09:44:23.335Z,5.7625
2022-12-29T09:47:19.371Z,7.4125
2022-12-29T09:51:22.286Z,11.3625
2022-12-29T09:54:31.284Z,7.2125
2022-12-29T09:57:22.109Z,7.65
2022-12-29T10:01:26.667Z,10.512500000000001
2022-12-29T10:04:16.423Z,5.9375
2022-12-29T10:07:29.973Z,6.7875
2022-12-29T10:11:27.056Z,6.375
2022-12-29T10:14:33.089Z,9.825000000000001
2022-12-29T10:17:27.678Z,15.375
2022-12-29T10:21:33.656Z,6.1375
2022-12-29T10:24:19.225Z,4.8125
2022-12-29T10:27:18.897Z,2.9124999999999996
2022-12-29T10:31:21.766Z,2.925
2022-12-29T10:34:22.423Z,8.3875
2022-12-29T10:37:33.762Z,5
2022-12-29T10:41:21.848Z,4.4375
2022-12-29T10:44:19.702Z,2.2
2022-12-29T10:47:24.443Z,4.4
2022-12-29T10:51:21.805Z,3.4124999999999996
2022-12-29T10:54:23.763Z,2.95
2022-12-29T10:57:26.701Z,4.199999999999999
2022-12-29T11:01:18.390Z,4.725
2022-12-29T11:04:31.514Z,4.05
2022-12-29T11:07:25.041Z,2.75
2022-12-29T11:11:23.851Z,4.1625000000000005
2022-12-29T11:14:21.600Z,2.875
2022-12-29T11:17:17.676Z,6.8375
2022-12-29T11:21:30.791Z,4.3125
2022-12-29T11:24:22.767Z,3.85
2022-12-29T11:27:18.764Z,3.7124999999999995
2022-12-29T11:31:18.217Z,9.7125
2022-12-29T11:34:20.239Z,5.1875
2022-12-29T11:37:19.849Z,9.35
2022-12-29T11:41:23.150Z,8.175
2022-12-29T11:44:17.029Z,8.1
2022-12-29T11:47:29.146Z,9.5875
2022-12-29T11:51:25.212Z,4.6625
2022-12-29T11:54:21.842Z,6.6375
2022-12-29T11:57:19.368Z,3.2625
2022-12-29T12:01:21.188Z,4.9375
2022-12-29T12:04:22.002Z,6.725
2022-12-29T12:07:23.055Z,4.075
2022-12-29T12:11:21.064Z,4.6875
2022-12-29T12:14:22.176Z,4.8
2022-12-29T12:17:21.722Z,5.675000000000001
2022-12-29T12:21:25.580Z,5.25
2022-12-29T12:24:30.949Z,4.4125
2022-12-29T12:27:22.190Z,3.375
2022-12-29T12:31:26.518Z,4.7
2022-12-29T12:34:23.973Z,3.375
2022-12-29T12:37:37.447Z,2.9624999999999995
2022-12-29T12:41:26.913Z,2.75
2022-12-29T12:44:28.769Z,5.45
2022-12-29T12:47:31.111Z,2.6125
2022-12-29T12:51:24.041Z,1.9875
2022-12-29T12:54:35.951Z,5.012499999999999
2022-12-29T12:57:26.080Z,3.4625
2022-12-29T13:01:30.277Z,4.425
2022-12-29T13:04:32.996Z,5.6625
2022-12-29T13:07:29.089Z,3.1625
2022-12-29T13:11:27.406Z,3.125
2022-12-29T13:14:30.300Z,5.525
2022-12-29T13:17:28.563Z,3.4625
2022-12-29T13:21:30.344Z,7.375
2022-12-29T13:24:23.915Z,10.25
2022-12-29T13:27:23.668Z,4.35
2022-12-29T13:31:24.460Z,10.7875
2022-12-29T13:34:27.755Z,3.1375
2022-12-29T13:37:19.174Z,4.8625
2022-12-29T13:41:23.436Z,6.612500000000001
2022-12-29T13:44:22.548Z,5.9125
2022-12-29T13:47:25.387Z,3.55
2022-12-29T13:51:21.391Z,4.275
2022-12-29T13:54:29.843Z,3.2625
2022-12-29T13:57:39.783Z,5.512499999999999
2022-12-29T14:01:23.245Z,4.025
2022-12-29T14:04:23.770Z,5.9375
2022-12-29T14:07:18.025Z,4.3
2022-12-29T14:11:18.199Z,3.625
2022-12-29T14:14:22.795Z,2.375
2022-12-29T14:17:20.035Z,5.925
2022-12-29T14:21:21.834Z,5.237500000000001
2022-12-29T14:24:49.155Z,5.9125
2022-12-29T14:27:53.697Z,4.7625
2022-12-29T14:31:35.686Z,6.612500000000001
2022-12-29T14:34:28.678Z,3.6125000000000003
2022-12-29T14:37:25.698Z,8.525
2022-12-29T14:41:24.662Z,6.625
2022-12-29T14:44:20.606Z,7.475
2022-12-29T14:47:21.155Z,6.5875
2022-12-29T14:51:21.263Z,11.3
2022-12-29T14:54:51.759Z,11.6875
2022-12-29T14:57:25.038Z,11.7375
2022-12-29T15:01:23.506Z,10.425
2022-12-29T15:04:20.787Z,11.649999999999999
2022-12-29T15:07:19.792Z,8.625
2022-12-29T15:11:20.276Z,7.9624999999999995
2022-12-29T15:14:35.145Z,7.625
2022-12-29T15:17:25.528Z,8.7
2022-12-29T15:21:17.327Z,8.4375
2022-12-29T15:24:16.526Z,11.287500000000001
2022-12-29T15:27:20.845Z,11.0625
2022-12-29T15:31:21.444Z,9.9
2022-12-29T15:34:21.530Z,6.324999999999999
2022-12-29T15:37:20.722Z,6.887499999999999
2022-12-29T15:41:26.108Z,11.375
2022-12-29T15:44:22.240Z,6.95
2022-12-29T15:47:19.208Z,10.375
2022-12-29T15:51:20.477Z,14.612499999999999
2022-12-29T15:54:19.815Z,8.6125
2022-12-29T15:57:23.074Z,8.95
2022-12-29T16:01:23.815Z,7.9125
2022-12-29T16:04:17.421Z,40.837500000000006
2022-12-29T16:07:27.926Z,17.8
2022-12-29T16:11:22.883Z,13.600000000000001
2022-12-29T16:14:19.755Z,11.149999999999999
2022-12-29T16:17:21.660Z,11.7
2022-12-29T16:21:21.569Z,9.1625
2022-12-29T16:24:19.781Z,8.9375
2022-12-29T16:27:22.204Z,6.725
2022-12-29T16:31:21.251Z,11.5
2022-12-29T16:34:24.980Z,8.987499999999999
2022-12-29T16:37:29.766Z,11.9125
2022-12-29T16:41:30.284Z,17.675
2022-12-29T16:44:18.845Z,16.975
2022-12-29T16:47:20.681Z,14.674999999999999
2022-12-29T16:51:19.306Z,15.25
2022-12-29T16:54:22.387Z,16.974999999999998
2022-12-29T16:57:25.151Z,13.7125
2022-12-29T17:01:20.718Z,14.1125
2022-12-29T17:04:17.206Z,18.200000000000003
2022-12-29T17:07:19.789Z,21.225
2022-12-29T17:12:25.516Z,9.7125
2022-12-29T17:14:24.548Z,7.8375
2022-12-29T17:17:20.501Z,7.5375
2022-12-29T17:21:16.781Z,9.8375
2022-12-29T17:24:18.759Z,5.075
2022-12-29T17:27:25.377Z,12.275
2022-12-29T17:31:16.893Z,7.6375
2022-12-29T17:34:17.578Z,5.5
2022-12-29T17:37:28.958Z,7.262499999999999
2022-12-29T17:41:16.793Z,9.899999999999999
2022-12-29T17:44:18.192Z,6.6
2022-12-29T17:47:16.825Z,9.1375
2022-12-29T17:51:17.382Z,16.55
2022-12-29T17:54:20.855Z,22.3125
2022-12-29T17:57:18.827Z,22.3125
2022-12-29T18:01:17.970Z,29.887500000000003
2022-12-29T18:04:19.337Z,19.1
2022-12-29T18:07:17.101Z,20.9625
2022-12-29T18:11:22.084Z,29.799999999999997
2022-12-29T18:14:17.001Z,29.4
2022-12-29T18:17:16.594Z,35.05
2022-12-29T18:21:19.101Z,17.625
2022-12-29T18:24:16.963Z,13.962499999999999
2022-12-29T18:27:17.871Z,15.45
2022-12-29T18:31:20.141Z,10.9875
2022-12-29T18:34:19.876Z,20.575
2022-12-29T18:37:16.842Z,7.3999999999999995
2022-12-29T18:41:18.132Z,14.8125
2022-12-29T18:44:16.287Z,5.95
2022-12-29T18:47:16.346Z,6.9
2022-12-29T18:51:18.490Z,8.2875
2022-12-29T18:54:26.292Z,16.8375
2022-12-29T18:57:16.415Z,12.45
2022-12-29T19:01:20.244Z,10.8875
2022-12-29T19:04:16.741Z,20.962500000000002
2022-12-29T19:07:16.602Z,5.612500000000001
2022-12-29T19:11:16.114Z,13.8125
2022-12-29T19:14:17.103Z,5.775
2022-12-29T19:17:16.203Z,6.0375
2022-12-29T19:21:16.765Z,7.6
2022-12-29T19:24:16.908Z,8.65
2022-12-29T19:27:16.954Z,16.4125
2022-12-29T19:31:16.417Z,21.7875
2022-12-29T19:34:17.137Z,18.674999999999997
2022-12-29T19:37:16.894Z,32.65
2022-12-29T19:41:16.669Z,31.225
2022-12-29T19:44:17.523Z,23.775000000000002
2022-12-29T19:47:20.707Z,19.650000000000002
2022-12-29T19:51:17.910Z,24.6875
2022-12-29T19:54:17.063Z,20.6875
2022-12-29T19:57:17.551Z,23.525
2022-12-29T20:01:17.926Z,20.6125
2022-12-29T20:04:16.495Z,14.975
2022-12-29T20:07:17.667Z,17.987499999999997
2022-12-29T20:11:18.018Z,18.3
2022-12-29T20:14:17.372Z,16.4125
2022-12-29T20:17:27.248Z,17.875
2022-12-29T20:21:18.663Z,18.9375
2022-12-29T20:24:16.792Z,12.125
2022-12-29T20:27:16.865Z,32.4
2022-12-29T20:31:19.470Z,18.275
2022-12-29T20:34:17.816Z,15.125000000000002
2022-12-29T20:37:16.775Z,16.2125
2022-12-29T20:41:17.755Z,15.924999999999999
2022-12-29T20:44:16.775Z,12.524999999999999
2022-12-29T20:47:16.896Z,11.05
2022-12-29T20:51:18.932Z,9.774999999999999
2022-12-29T20:54:17.044Z,8.25
2022-12-29T20:57:16.852Z,9.7625
2022-12-29T21:01:19.811Z,9.2625
2022-12-29T21:04:16.956Z,10.962499999999999
2022-12-29T21:07:20.157Z,28.85
2022-12-29T21:11:16.089Z,13.274999999999999
2022-12-29T21:14:16.311Z,8.825
2022-12-29T21:17:16.177Z,11.337499999999999
2022-12-29T21:21:19.539Z,14.399999999999999
2022-12-29T21:24:16.736Z,13.3375
2022-12-29T21:27:16.673Z,6.275
2022-12-29T21:31:24.600Z,9.8
2022-12-29T21:34:17.563Z,14.0875
2022-12-29T21:37:23.253Z,11.925
2022-12-29T21:41:16.696Z,11.350000000000001
2022-12-29T21:52:21.467Z,11.8625
2022-12-29T21:55:21.366Z,16.4375
2022-12-29T22:21:16.642Z,10.9375
2022-12-29T22:24:16.996Z,9.875
2022-12-29T22:27:16.731Z,8.6375
2022-12-29T22:31:23.892Z,7.8125
2022-12-29T22:34:17.234Z,5.6375
2022-12-29T22:37:22.611Z,11.9375
2022-12-29T22:41:16.619Z,10.1625
2022-12-29T22:44:17.258Z,6.7375
2022-12-29T22:47:16.686Z,8.400000000000002
2022-12-29T22:51:16.703Z,6.6499999999999995
2022-12-29T22:54:18.784Z,9.0875
2022-12-29T22:57:16.928Z,9.1125
2022-12-29T23:01:17.830Z,12.7125
2022-12-29T23:04:55.544Z,7.925
2022-12-29T23:07:16.784Z,8.8
2022-12-29T23:11:16.986Z,12.8125
2022-12-29T23:14:17.625Z,5.1
2022-12-29T23:17:16.789Z,13.05
2022-12-29T23:21:17.875Z,9.350000000000001
2022-12-29T23:24:16.660Z,7.5875
2022-12-29T23:27:16.701Z,8
2022-12-29T23:31:16.801Z,13.1875
2022-12-29T23:34:17.059Z,9.2625
2022-12-29T23:37:16.608Z,10.8875
2022-12-29T23:41:22.235Z,11.962499999999999
2022-12-29T23:44:22.828Z,12.55
2022-12-29T23:47:22.127Z,7.1125
2022-12-29T23:51:16.566Z,9.125
2022-12-29T23:54:16.541Z,10.5625
2022-12-29T23:57:16.817Z,10.274999999999999
